Time;durP1;ratioP1;P1;durP2;ratioP2;P2;SDS_P1;SDS_P2;PMS_P1;PMS_P2;Temp;Humidity;BMP_temperature;BMP_pressure;BME280_temperature;BME280_humidity;BME280_pressure;Samples;Min_cycle;Max_cycle;Signal;HPM_P1;HPM_P2
2023/01/24 00:00:19;;;;;;;13.95;9.02;;;;;;;;;;4969941;28;20046;-73
2023/01/24 00:02:46;;;;;;;15.65;9.20;;;;;;;;;;4970180;28;20050;-73
2023/01/24 00:05:13;;;;;;;15.13;9.55;;;;;;;;;;4971325;28;20531;-73
2023/01/24 00:07:40;;;;;;;15.98;10.30;;;;;;;;;;4962539;28;20047;-73
2023/01/24 00:10:09;;;;;;;15.38;9.95;;;;;;;;;;4970106;28;20544;-74
2023/01/24 00:12:36;;;;;;;16.15;10.75;;;;;;;;;;4968621;28;20051;-73
2023/01/24 00:15:05;;;;;;;16.52;10.10;;;;;;;;;;4965015;28;20577;-73
2023/01/24 00:17:32;;;;;;;16.23;10.75;;;;;;;;;;4967929;28;20047;-73
2023/01/24 00:19:59;;;;;;;17.30;10.57;;;;;;;;;;4971846;28;20055;-73
2023/01/24 00:22:26;;;;;;;15.75;10.07;;;;;;;;;;4968979;28;20133;-73
2023/01/24 00:24:54;;;;;;;16.27;10.10;;;;;;;;;;4969581;28;20133;-73
2023/01/24 00:27:21;;;;;;;15.75;10.32;;;;;;;;;;4970893;28;20074;-73
2023/01/24 00:29:48;;;;;;;14.57;10.10;;;;;;;;;;4965994;28;20073;-74
2023/01/24 00:32:17;;;;;;;15.32;10.35;;;;;;;;;;4969914;28;20382;-73
2023/01/24 00:34:44;;;;;;;16.15;10.55;;;;;;;;;;4970762;28;20081;-73
2023/01/24 00:37:11;;;;;;;16.58;10.60;;;;;;;;;;4969108;28;20482;-73
2023/01/24 00:39:38;;;;;;;18.35;11.07;;;;;;;;;;4966764;28;20061;-74
2023/01/24 00:42:06;;;;;;;16.35;10.65;;;;;;;;;;4962684;28;20410;-74
2023/01/24 00:44:33;;;;;;;16.63;10.90;;;;;;;;;;4961257;28;20150;-73
2023/01/24 00:47:00;;;;;;;17.02;10.57;;;;;;;;;;4967122;28;20073;-74
2023/01/24 00:49:29;;;;;;;16.50;11.77;;;;;;;;;;4968755;28;20073;-73
2023/01/24 00:51:56;;;;;;;15.50;10.70;;;;;;;;;;4970674;28;20050;-73
2023/01/24 00:54:23;;;;;;;16.67;10.82;;;;;;;;;;4966264;28;20055;-74
2023/01/24 00:56:51;;;;;;;16.30;10.85;;;;;;;;;;4968529;28;20074;-74
2023/01/24 00:59:18;;;;;;;15.30;10.68;;;;;;;;;;4967027;28;20046;-73
2023/01/24 01:01:45;;;;;;;17.42;11.55;;;;;;;;;;4971000;28;20054;-74
2023/01/24 01:04:12;;;;;;;15.90;11.35;;;;;;;;;;4967031;28;20051;-73
2023/01/24 01:06:41;;;;;;;17.08;10.50;;;;;;;;;;4966756;28;20062;-74
2023/01/24 01:09:08;;;;;;;15.52;11.07;;;;;;;;;;4969364;28;20054;-74
2023/01/24 01:11:35;;;;;;;17.05;11.30;;;;;;;;;;4969414;28;20454;-74
2023/01/24 01:14:03;;;;;;;19.05;11.95;;;;;;;;;;4966935;28;20047;-73
2023/01/24 01:16:32;;;;;;;17.50;11.65;;;;;;;;;;4963236;28;20143;-74
2023/01/24 01:18:59;;;;;;;18.52;11.27;;;;;;;;;;4969239;28;20089;-74
2023/01/24 01:21:26;;;;;;;18.52;11.48;;;;;;;;;;4968083;28;20090;-73
2023/01/24 01:23:55;;;;;;;18.83;11.73;;;;;;;;;;4968959;28;20059;-73
2023/01/24 01:26:23;;;;;;;16.15;10.60;;;;;;;;;;4983793;28;20534;-73
2023/01/24 01:28:50;;;;;;;20.48;11.73;;;;;;;;;;4969582;28;20410;-74
2023/01/24 01:31:17;;;;;;;19.88;12.05;;;;;;;;;;4967876;28;20062;-73
2023/01/24 01:33:45;;;;;;;19.55;12.35;;;;;;;;;;4971011;28;20598;-74
2023/01/24 01:36:12;;;;;;;14.57;10.90;;;;;;;;;;4965465;28;20051;-73
2023/01/24 01:38:39;;;;;;;16.67;11.13;;;;;;;;;;4969476;28;20055;-73
2023/01/24 01:41:08;;;;;;;17.33;11.80;;;;;;;;;;4967918;28;20057;-74
2023/01/24 01:43:35;;;;;;;18.05;11.43;;;;;;;;;;4967541;28;20073;-73
2023/01/24 01:46:09;;;;;;;17.90;11.50;;;;;;;;;;4965737;28;20057;-74
2023/01/24 01:48:38;;;;;;;16.92;11.63;;;;;;;;;;4969556;28;20043;-73
2023/01/24 01:51:08;;;;;;;17.85;11.80;;;;;;;;;;4970594;28;20057;-74
2023/01/24 01:53:37;;;;;;;19.10;11.88;;;;;;;;;;4967535;28;20063;-74
2023/01/24 01:56:06;;;;;;;17.77;11.43;;;;;;;;;;4966525;28;20059;-74
2023/01/24 01:58:35;;;;;;;16.90;10.93;;;;;;;;;;4958857;28;20066;-73
2023/01/24 02:01:02;;;;;;;17.08;11.45;;;;;;;;;;4963549;28;20055;-73
2023/01/24 02:06:58;;;;;;;15.95;10.68;;;;;;;;;;4950389;28;20029;-73
2023/01/24 02:09:28;;;;;;;19.17;12.55;;;;;;;;;;4960207;28;20066;-74
2023/01/24 02:11:57;;;;;;;17.88;11.70;;;;;;;;;;4964620;28;20517;-73
2023/01/24 02:17:11;;;;;;;17.85;11.43;;;;;;;;;;4961332;28;20043;-74
2023/01/24 02:19:47;;;;;;;16.75;11.25;;;;;;;;;;4968722;28;20043;-73
2023/01/24 02:22:17;;;;;;;18.52;12.27;;;;;;;;;;4977927;28;20062;-74
2023/01/24 02:24:47;;;;;;;19.17;12.25;;;;;;;;;;4961086;28;20482;-74
2023/01/24 02:27:16;;;;;;;16.92;11.32;;;;;;;;;;4965285;28;20055;-73
2023/01/24 02:29:43;;;;;;;18.73;12.50;;;;;;;;;;4980040;28;20403;-73
2023/01/24 02:32:12;;;;;;;19.35;11.88;;;;;;;;;;4968983;28;20055;-74
2023/01/24 02:34:40;;;;;;;18.10;12.27;;;;;;;;;;4964775;28;20051;-73
2023/01/24 02:37:09;;;;;;;17.23;12.05;;;;;;;;;;4968654;28;20051;-74
2023/01/24 02:39:39;;;;;;;19.15;12.50;;;;;;;;;;4966447;28;20410;-74
2023/01/24 02:42:09;;;;;;;16.52;11.05;;;;;;;;;;4967862;28;20054;-73
2023/01/24 02:44:42;;;;;;;17.42;11.40;;;;;;;;;;4966246;28;20363;-73
2023/01/24 02:47:09;;;;;;;19.15;13.23;;;;;;;;;;4965207;28;20573;-74
2023/01/24 02:49:36;;;;;;;18.90;12.50;;;;;;;;;;4967144;28;20126;-73
2023/01/24 02:54:47;;;;;;;17.42;11.70;;;;;;;;;;4943302;28;20153;-73
2023/01/24 03:00:01;;;;;;;19.48;11.98;;;;;;;;;;4961396;28;20061;-73
2023/01/24 03:02:28;;;;;;;17.33;11.20;;;;;;;;;;4964246;28;20067;-73
2023/01/24 03:04:55;;;;;;;19.00;12.05;;;;;;;;;;4965869;28;20047;-74
2023/01/24 03:07:22;;;;;;;17.88;11.65;;;;;;;;;;4965341;28;20062;-74
2023/01/24 03:09:50;;;;;;;17.50;11.63;;;;;;;;;;4965891;28;20054;-74
2023/01/24 03:34:31;;;;;;;18.35;12.52;;;;;;;;;;4967607;28;20137;-73
2023/01/24 03:36:58;;;;;;;16.70;11.18;;;;;;;;;;4965785;28;20074;-73
2023/01/24 03:42:10;;;;;;;20.10;11.77;;;;;;;;;;4966542;28;20050;-74
2023/01/24 03:44:37;;;;;;;18.67;12.00;;;;;;;;;;4963497;28;20063;-74
2023/01/24 03:47:06;;;;;;;20.30;12.88;;;;;;;;;;4965540;28;20062;-74
2023/01/24 03:52:30;;;;;;;16.77;11.50;;;;;;;;;;4968794;28;20125;-71
2023/01/24 03:54:57;;;;;;;17.45;11.32;;;;;;;;;;4970187;28;20059;-71
2023/01/24 03:57:24;;;;;;;20.30;11.63;;;;;;;;;;4972750;28;20073;-71
2023/01/24 03:59:52;;;;;;;16.77;11.07;;;;;;;;;;4968994;28;20055;-71
2023/01/24 04:02:20;;;;;;;18.02;11.65;;;;;;;;;;4971795;28;20053;-71
2023/01/24 04:07:33;;;;;;;17.52;10.82;;;;;;;;;;4968976;28;20057;-71
2023/01/24 04:10:00;;;;;;;18.95;11.50;;;;;;;;;;4967648;28;20059;-71
2023/01/24 04:12:28;;;;;;;18.35;11.05;;;;;;;;;;4967984;28;20059;-71
2023/01/24 04:14:55;;;;;;;16.08;10.80;;;;;;;;;;4967854;28;20065;-71
2023/01/24 04:17:24;;;;;;;18.33;11.45;;;;;;;;;;4970719;28;20059;-70
2023/01/24 04:19:51;;;;;;;17.23;11.02;;;;;;;;;;4966720;28;20043;-71
2023/01/24 04:22:18;;;;;;;18.35;11.85;;;;;;;;;;4969477;28;20391;-71
2023/01/24 04:24:46;;;;;;;19.40;10.82;;;;;;;;;;4969126;28;20054;-71
2023/01/24 04:27:13;;;;;;;16.48;10.77;;;;;;;;;;4963235;28;20135;-71
2023/01/24 04:29:41;;;;;;;16.20;10.73;;;;;;;;;;4966492;28;20462;-71
2023/01/24 04:32:08;;;;;;;17.08;11.30;;;;;;;;;;4968390;28;20054;-71
2023/01/24 04:34:37;;;;;;;18.10;10.30;;;;;;;;;;4967571;28;20051;-71
2023/01/24 04:37:04;;;;;;;16.40;10.23;;;;;;;;;;4968807;28;20059;-71
2023/01/24 04:39:31;;;;;;;17.55;11.32;;;;;;;;;;4965426;28;20047;-71
2023/01/24 04:41:59;;;;;;;16.15;10.70;;;;;;;;;;4965590;28;20051;-71
2023/01/24 04:44:26;;;;;;;19.25;12.27;;;;;;;;;;4964455;28;20505;-71
2023/01/24 04:46:53;;;;;;;17.27;11.43;;;;;;;;;;4964548;28;20059;-71
2023/01/24 04:49:20;;;;;;;17.77;10.98;;;;;;;;;;4965826;28;20414;-71
2023/01/24 04:51:49;;;;;;;20.05;12.25;;;;;;;;;;4970675;28;20062;-70
2023/01/24 04:54:17;;;;;;;16.02;10.75;;;;;;;;;;4966307;28;20057;-71
2023/01/24 04:56:44;;;;;;;14.77;10.05;;;;;;;;;;4970905;28;20063;-71
2023/01/24 04:59:12;;;;;;;15.30;10.32;;;;;;;;;;4967552;28;20077;-71
2023/01/24 05:01:40;;;;;;;19.00;11.80;;;;;;;;;;4965351;28;20528;-71
2023/01/24 05:04:07;;;;;;;18.88;11.75;;;;;;;;;;4967169;28;20050;-71
2023/01/24 05:06:35;;;;;;;16.15;9.80;;;;;;;;;;4975742;28;20134;-71
2023/01/24 05:09:04;;;;;;;14.32;8.82;;;;;;;;;;4957853;28;20096;-71
2023/01/24 05:11:31;;;;;;;13.95;9.70;;;;;;;;;;4968466;28;20054;-71
2023/01/24 05:13:58;;;;;;;15.45;9.88;;;;;;;;;;4967164;28;20518;-71
2023/01/24 05:16:26;;;;;;;13.95;10.02;;;;;;;;;;4968345;28;20115;-71
2023/01/24 05:18:53;;;;;;;15.55;10.90;;;;;;;;;;4965368;28;20058;-71
2023/01/24 05:21:20;;;;;;;16.38;11.25;;;;;;;;;;4963974;28;20349;-71
2023/01/24 05:23:51;;;;;;;16.00;10.85;;;;;;;;;;4963827;28;20498;-71
2023/01/24 05:26:21;;;;;;;15.10;10.10;;;;;;;;;;4969494;28;20120;-71
2023/01/24 05:28:48;;;;;;;15.02;10.48;;;;;;;;;;4967730;28;20150;-71
2023/01/24 05:31:15;;;;;;;17.23;10.85;;;;;;;;;;4969549;28;20077;-71
2023/01/24 05:33:43;;;;;;;18.35;11.45;;;;;;;;;;4961791;28;20051;-70
2023/01/24 05:36:10;;;;;;;20.42;12.25;;;;;;;;;;4969314;28;20050;-71
2023/01/24 05:38:38;;;;;;;15.20;10.35;;;;;;;;;;4969698;28;20062;-71
2023/01/24 05:41:06;;;;;;;16.00;10.43;;;;;;;;;;4967736;28;20549;-71
2023/01/24 05:43:34;;;;;;;17.42;11.35;;;;;;;;;;4965796;28;20384;-71
2023/01/24 05:46:02;;;;;;;16.95;11.82;;;;;;;;;;4966752;28;20054;-71
2023/01/24 05:48:30;;;;;;;19.08;12.23;;;;;;;;;;4965085;28;20051;-71
2023/01/24 05:50:58;;;;;;;20.90;12.85;;;;;;;;;;4959634;28;20058;-71
2023/01/24 05:53:25;;;;;;;19.17;12.23;;;;;;;;;;4962960;28;20133;-71
2023/01/24 05:55:55;;;;;;;18.52;11.13;;;;;;;;;;4969193;28;20611;-71
2023/01/24 05:58:23;;;;;;;13.68;9.18;;;;;;;;;;4966896;28;20051;-70
2023/01/24 06:00:51;;;;;;;16.80;11.32;;;;;;;;;;4963807;28;20043;-71
2023/01/24 06:03:19;;;;;;;16.92;11.57;;;;;;;;;;4974485;28;20227;-71
2023/01/24 06:05:47;;;;;;;17.35;10.23;;;;;;;;;;4964460;28;20054;-71
2023/01/24 06:08:14;;;;;;;16.75;10.52;;;;;;;;;;4961217;28;20394;-71
2023/01/24 06:10:41;;;;;;;17.45;11.60;;;;;;;;;;4964207;28;20486;-71
2023/01/24 06:13:08;;;;;;;14.02;10.00;;;;;;;;;;4978687;28;20062;-70
2023/01/24 06:15:36;;;;;;;17.40;11.48;;;;;;;;;;4966089;28;20058;-71
2023/01/24 06:18:05;;;;;;;17.42;11.40;;;;;;;;;;4964399;28;20536;-71
2023/01/24 06:20:32;;;;;;;17.23;10.77;;;;;;;;;;4959023;28;20054;-75
2023/01/24 06:23:03;;;;;;;17.63;10.70;;;;;;;;;;4966776;28;20054;-74
2023/01/24 06:25:31;;;;;;;14.75;9.60;;;;;;;;;;4961536;28;20138;-74
2023/01/24 06:27:58;;;;;;;14.75;9.75;;;;;;;;;;4966793;28;20405;-74
2023/01/24 06:30:26;;;;;;;16.70;9.93;;;;;;;;;;4963417;28;20091;-73
2023/01/24 06:33:07;;;;;;;16.83;10.43;;;;;;;;;;4964855;28;20489;-73
2023/01/24 06:35:38;;;;;;;13.93;9.93;;;;;;;;;;4964754;28;20063;-74
2023/01/24 06:38:06;;;;;;;14.57;10.38;;;;;;;;;;4969376;28;20125;-74
2023/01/24 06:40:33;;;;;;;15.00;10.40;;;;;;;;;;4956250;28;20051;-74
2023/01/24 06:43:00;;;;;;;13.63;9.98;;;;;;;;;;4963455;28;20055;-73
2023/01/24 06:45:28;;;;;;;17.58;10.75;;;;;;;;;;4964081;28;20054;-73
2023/01/24 06:47:57;;;;;;;18.05;10.43;;;;;;;;;;4962086;28;20288;-73
2023/01/24 06:50:29;;;;;;;17.20;11.15;;;;;;;;;;4960185;28;20138;-73
2023/01/24 06:52:57;;;;;;;16.55;10.95;;;;;;;;;;4959627;28;20046;-73
2023/01/24 06:55:25;;;;;;;16.20;10.52;;;;;;;;;;4961212;28;20059;-74
2023/01/24 06:57:55;;;;;;;17.23;11.30;;;;;;;;;;4956613;28;20051;-73
2023/01/24 07:00:22;;;;;;;17.48;10.55;;;;;;;;;;4965739;28;20047;-74
2023/01/24 07:02:50;;;;;;;18.73;11.13;;;;;;;;;;4962178;28;20055;-74
2023/01/24 07:05:17;;;;;;;20.10;12.32;;;;;;;;;;4964623;28;20042;-73
2023/01/24 07:07:44;;;;;;;17.50;11.10;;;;;;;;;;4964116;28;20513;-74
2023/01/24 07:10:13;;;;;;;19.17;11.63;;;;;;;;;;4958815;28;20126;-73
2023/01/24 07:12:43;;;;;;;19.58;12.10;;;;;;;;;;4966147;28;20419;-74
2023/01/24 07:15:10;;;;;;;18.85;12.32;;;;;;;;;;4960527;28;20051;-74
2023/01/24 07:17:38;;;;;;;19.13;12.13;;;;;;;;;;4958418;28;20043;-73
2023/01/24 07:20:06;;;;;;;17.42;11.60;;;;;;;;;;4965438;28;20518;-73
2023/01/24 07:22:33;;;;;;;16.80;12.13;;;;;;;;;;4964573;28;20057;-74
2023/01/24 07:25:01;;;;;;;17.60;12.05;;;;;;;;;;4968042;28;20050;-74
2023/01/24 07:27:30;;;;;;;18.00;11.23;;;;;;;;;;4971772;28;20129;-74
2023/01/24 07:29:57;;;;;;;19.13;12.38;;;;;;;;;;4970395;28;20056;-74
2023/01/24 07:32:25;;;;;;;20.55;13.05;;;;;;;;;;4969664;28;20434;-73
2023/01/24 07:34:52;;;;;;;18.15;12.20;;;;;;;;;;4972942;28;20073;-73
2023/01/24 07:37:21;;;;;;;17.85;11.73;;;;;;;;;;4968396;28;20485;-74
2023/01/24 07:39:48;;;;;;;18.80;12.55;;;;;;;;;;4966865;28;20105;-73
2023/01/24 07:42:15;;;;;;;20.30;13.15;;;;;;;;;;4967267;28;20050;-73
2023/01/24 07:44:44;;;;;;;19.67;13.00;;;;;;;;;;4965113;28;20054;-74
2023/01/24 07:47:11;;;;;;;19.75;13.13;;;;;;;;;;4968881;28;20047;-73
2023/01/24 07:49:38;;;;;;;20.38;12.80;;;;;;;;;;4970660;28;20047;-73
2023/01/24 07:52:06;;;;;;;22.48;14.80;;;;;;;;;;4971639;28;20448;-74
2023/01/24 07:54:33;;;;;;;20.77;13.65;;;;;;;;;;4969144;28;20648;-74
2023/01/24 07:57:01;;;;;;;23.27;13.77;;;;;;;;;;4971419;28;20085;-73
2023/01/24 07:59:28;;;;;;;22.75;14.25;;;;;;;;;;4968241;28;20051;-74
2023/01/24 08:01:56;;;;;;;24.85;15.75;;;;;;;;;;4971487;28;20055;-74
2023/01/24 08:04:24;;;;;;;22.00;14.40;;;;;;;;;;4967985;28;20051;-73
2023/01/24 08:09:36;;;;;;;23.70;14.38;;;;;;;;;;4967790;28;20054;-73
2023/01/24 08:12:03;;;;;;;23.58;15.07;;;;;;;;;;4969287;28;20697;-73
2023/01/24 08:14:30;;;;;;;22.90;15.43;;;;;;;;;;4967528;28;20066;-74
2023/01/24 08:16:59;;;;;;;26.35;15.95;;;;;;;;;;4965900;28;20428;-73
2023/01/24 08:19:26;;;;;;;25.85;16.23;;;;;;;;;;4959973;28;20062;-73
2023/01/24 08:21:53;;;;;;;29.27;17.10;;;;;;;;;;4964107;28;20494;-73
2023/01/24 08:24:20;;;;;;;25.13;16.35;;;;;;;;;;4966370;28;20074;-73
2023/01/24 08:26:48;;;;;;;28.05;17.30;;;;;;;;;;4969391;28;20138;-73
2023/01/24 08:29:16;;;;;;;25.42;16.73;;;;;;;;;;4968037;28;20058;-74
2023/01/24 08:31:43;;;;;;;25.15;17.30;;;;;;;;;;4966617;28;20134;-73
2023/01/24 08:34:12;;;;;;;27.20;17.08;;;;;;;;;;4969463;28;20061;-74
2023/01/24 08:36:39;;;;;;;24.73;16.98;;;;;;;;;;4970478;28;20057;-74
2023/01/24 08:39:06;;;;;;;26.58;17.65;;;;;;;;;;4968316;28;20624;-74
2023/01/24 08:41:34;;;;;;;29.65;18.88;;;;;;;;;;4965163;28;20051;-74
2023/01/24 08:44:02;;;;;;;28.50;18.52;;;;;;;;;;4968994;28;20059;-74
2023/01/24 08:46:29;;;;;;;30.83;18.83;;;;;;;;;;4964053;28;20055;-75
2023/01/24 08:48:56;;;;;;;26.92;17.48;;;;;;;;;;4970310;28;20050;-74
2023/01/24 08:51:25;;;;;;;26.05;17.50;;;;;;;;;;4956379;28;20702;-73
2023/01/24 08:53:52;;;;;;;28.25;17.90;;;;;;;;;;4970856;28;20046;-74
2023/01/24 08:56:19;;;;;;;28.52;16.73;;;;;;;;;;4969336;28;20058;-74
2023/01/24 08:58:47;;;;;;;30.58;18.55;;;;;;;;;;4967852;28;20046;-73
2023/01/24 09:01:14;;;;;;;35.55;22.13;;;;;;;;;;4970209;28;20406;-74
2023/01/24 09:03:41;;;;;;;34.38;20.33;;;;;;;;;;4971354;28;20055;-74
2023/01/24 09:06:09;;;;;;;28.95;18.85;;;;;;;;;;4985886;28;20067;-74
2023/01/24 09:08:38;;;;;;;29.15;19.15;;;;;;;;;;4970017;28;20058;-73
2023/01/24 09:11:05;;;;;;;29.23;17.30;;;;;;;;;;4961712;28;20043;-74
2023/01/24 09:13:33;;;;;;;32.05;18.17;;;;;;;;;;4966933;28;20074;-73
2023/01/24 09:16:00;;;;;;;29.13;18.50;;;;;;;;;;4967642;28;20054;-74
2023/01/24 09:18:27;;;;;;;29.77;18.20;;;;;;;;;;4968989;28;20065;-74
2023/01/24 09:20:54;;;;;;;29.58;19.33;;;;;;;;;;4960584;28;20067;-73
2023/01/24 09:23:23;;;;;;;32.63;19.17;;;;;;;;;;4961558;28;20050;-74
2023/01/24 09:25:53;;;;;;;29.52;19.65;;;;;;;;;;4968443;28;20046;-73
2023/01/24 09:28:20;;;;;;;29.45;18.80;;;;;;;;;;4968324;28;20051;-74
2023/01/24 09:30:48;;;;;;;29.95;18.40;;;;;;;;;;4969565;28;20051;-74
2023/01/24 09:33:17;;;;;;;30.95;18.15;;;;;;;;;;4965144;28;20113;-74
2023/01/24 09:35:44;;;;;;;29.92;18.88;;;;;;;;;;4964189;28;20106;-73
2023/01/24 09:38:11;;;;;;;31.45;19.02;;;;;;;;;;4961404;28;20499;-74
2023/01/24 09:40:44;;;;;;;27.30;18.42;;;;;;;;;;4962190;28;20069;-74
2023/01/24 09:43:17;;;;;;;29.50;18.40;;;;;;;;;;4967228;28;20409;-74
2023/01/24 09:45:49;;;;;;;28.05;18.50;;;;;;;;;;4978822;28;20569;-73
2023/01/24 09:48:16;;;;;;;32.35;18.65;;;;;;;;;;4970481;28;20410;-74
2023/01/24 09:50:46;;;;;;;29.40;18.25;;;;;;;;;;4962637;28;20149;-73
2023/01/24 09:53:17;;;;;;;30.48;18.13;;;;;;;;;;4957806;28;20239;-74
2023/01/24 09:55:44;;;;;;;30.10;18.85;;;;;;;;;;4962380;28;20043;-74
2023/01/24 09:58:31;;;;;;;29.73;18.23;;;;;;;;;;4968979;28;20054;-74
2023/01/24 10:01:00;;;;;;;32.10;19.02;;;;;;;;;;4959065;28;20089;-74
2023/01/24 10:03:28;;;;;;;32.20;19.60;;;;;;;;;;4962337;28;20054;-74
2023/01/24 10:05:56;;;;;;;31.65;18.90;;;;;;;;;;4966795;28;20050;-73
2023/01/24 10:08:28;;;;;;;31.42;19.38;;;;;;;;;;4968094;28;20133;-74
2023/01/24 10:10:59;;;;;;;34.03;20.45;;;;;;;;;;4967596;28;20047;-74
2023/01/24 10:13:44;;;;;;;30.38;18.73;;;;;;;;;;4967917;28;20406;-74
2023/01/24 10:16:19;;;;;;;29.42;18.25;;;;;;;;;;4982228;28;20050;-74
2023/01/24 10:18:51;;;;;;;29.05;18.05;;;;;;;;;;4964832;28;20411;-74
2023/01/24 10:21:27;;;;;;;33.95;18.80;;;;;;;;;;4961036;28;20053;-74
2023/01/24 10:23:57;;;;;;;29.25;18.50;;;;;;;;;;4965893;28;20058;-74
2023/01/24 10:26:35;;;;;;;28.27;17.30;;;;;;;;;;4965301;28;20510;-74
2023/01/24 10:29:09;;;;;;;26.55;16.35;;;;;;;;;;4966779;28;20059;-74
2023/01/24 10:31:38;;;;;;;25.52;15.52;;;;;;;;;;4980774;28;20101;-73
2023/01/24 10:34:10;;;;;;;25.73;15.88;;;;;;;;;;4962244;28;20050;-74
2023/01/24 10:36:42;;;;;;;27.85;16.50;;;;;;;;;;4965599;28;20074;-74
2023/01/24 10:39:10;;;;;;;24.23;15.85;;;;;;;;;;4963950;28;20481;-73
2023/01/24 10:41:38;;;;;;;24.42;15.02;;;;;;;;;;4967140;28;20050;-74
2023/01/24 10:44:11;;;;;;;25.05;15.52;;;;;;;;;;4962239;28;20055;-73
2023/01/24 10:46:53;;;;;;;26.80;15.98;;;;;;;;;;4966182;28;20050;-73
2023/01/24 10:49:24;;;;;;;24.92;15.77;;;;;;;;;;4977640;28;20419;-74
2023/01/24 10:52:24;;;;;;;30.65;16.52;;;;;;;;;;4967593;28;20078;-73
2023/01/24 10:54:53;;;;;;;22.75;14.98;;;;;;;;;;4931499;28;20058;-74
2023/01/24 10:57:35;;;;;;;22.55;14.95;;;;;;;;;;4935375;29;20079;-74
2023/01/24 11:00:05;;;;;;;25.55;14.98;;;;;;;;;;4954077;28;20069;-74
2023/01/24 11:02:34;;;;;;;23.45;14.15;;;;;;;;;;4972972;28;20061;-74
2023/01/24 11:05:03;;;;;;;24.80;14.90;;;;;;;;;;4971809;28;20062;-74
2023/01/24 11:07:32;;;;;;;24.77;13.45;;;;;;;;;;4970853;28;20047;-74
2023/01/24 11:10:01;;;;;;;22.50;14.98;;;;;;;;;;4969599;28;20058;-74
2023/01/24 11:12:28;;;;;;;22.35;14.75;;;;;;;;;;4970830;28;20082;-73
2023/01/24 11:14:55;;;;;;;21.60;14.15;;;;;;;;;;4963729;28;20058;-74
2023/01/24 11:17:32;;;;;;;24.27;15.57;;;;;;;;;;4965817;28;20050;-74
2023/01/24 11:20:02;;;;;;;23.15;15.73;;;;;;;;;;4970013;28;20069;-73
2023/01/24 11:22:34;;;;;;;25.48;15.23;;;;;;;;;;4965707;28;20051;-74
2023/01/24 11:25:03;;;;;;;24.88;16.02;;;;;;;;;;4970049;28;20077;-73
2023/01/24 11:27:31;;;;;;;25.25;15.85;;;;;;;;;;4963924;28;20051;-73
2023/01/24 11:30:08;;;;;;;23.83;15.60;;;;;;;;;;4969958;28;20514;-74
2023/01/24 11:32:41;;;;;;;23.83;14.95;;;;;;;;;;4961476;28;20438;-74
2023/01/24 11:35:12;;;;;;;23.38;15.50;;;;;;;;;;4971343;28;20051;-74
2023/01/24 11:38:00;;;;;;;20.35;13.88;;;;;;;;;;4964917;28;20065;-74
2023/01/24 11:40:31;;;;;;;21.63;14.38;;;;;;;;;;4935099;28;20063;-73
2023/01/24 11:43:04;;;;;;;20.88;13.70;;;;;;;;;;4964813;28;20070;-73
2023/01/24 11:45:40;;;;;;;23.23;15.15;;;;;;;;;;4967795;28;20062;-73
2023/01/24 11:48:14;;;;;;;24.25;15.30;;;;;;;;;;4968362;28;20118;-73
2023/01/24 11:50:45;;;;;;;21.98;15.02;;;;;;;;;;4970282;28;20059;-74
2023/01/24 11:53:28;;;;;;;23.45;14.90;;;;;;;;;;4965575;28;20051;-73
2023/01/24 11:56:00;;;;;;;21.60;14.02;;;;;;;;;;4969915;28;20530;-73
2023/01/24 11:58:43;;;;;;;24.37;14.97;;;;;;;;;;4966712;28;20074;-74
2023/01/24 12:01:12;;;;;;;22.63;14.95;;;;;;;;;;4965240;28;20314;-73
2023/01/24 12:03:49;;;;;;;22.77;14.95;;;;;;;;;;4979895;28;20079;-72
2023/01/24 12:06:21;;;;;;;22.05;15.15;;;;;;;;;;4969216;28;20090;-72
2023/01/24 12:08:58;;;;;;;22.48;15.20;;;;;;;;;;4965219;28;20503;-71
2023/01/24 12:11:29;;;;;;;25.10;15.02;;;;;;;;;;4962007;28;20057;-71
2023/01/24 12:14:03;;;;;;;21.05;13.85;;;;;;;;;;4966824;28;20066;-71
2023/01/24 12:16:42;;;;;;;24.30;14.18;;;;;;;;;;4964390;28;20046;-71
2023/01/24 12:19:22;;;;;;;23.88;15.65;;;;;;;;;;4964931;28;20054;-71
2023/01/24 12:21:50;;;;;;;22.23;14.80;;;;;;;;;;4968344;28;20106;-71
2023/01/24 12:24:20;;;;;;;21.60;14.32;;;;;;;;;;4970426;28;20058;-72
2023/01/24 12:26:50;;;;;;;20.65;14.30;;;;;;;;;;4967653;28;20062;-73
2023/01/24 12:29:19;;;;;;;20.52;14.00;;;;;;;;;;4969382;28;20054;-72
2023/01/24 12:31:49;;;;;;;21.50;14.68;;;;;;;;;;4970072;28;20055;-72
2023/01/24 12:34:27;;;;;;;22.63;14.88;;;;;;;;;;4967587;28;20490;-72
2023/01/24 12:36:57;;;;;;;25.13;14.45;;;;;;;;;;4969104;28;20138;-72
2023/01/24 12:39:28;;;;;;;23.50;15.45;;;;;;;;;;4968712;28;20057;-72
2023/01/24 12:41:59;;;;;;;21.77;14.48;;;;;;;;;;4979315;28;20047;-72
2023/01/24 12:44:30;;;;;;;23.08;15.75;;;;;;;;;;4968693;28;20055;-72
2023/01/24 12:47:13;;;;;;;21.73;14.57;;;;;;;;;;4967323;28;20051;-73
2023/01/24 12:49:47;;;;;;;23.38;15.13;;;;;;;;;;4969475;28;20050;-72
2023/01/24 12:52:19;;;;;;;25.75;16.13;;;;;;;;;;4984616;28;20051;-73
2023/01/24 12:54:50;;;;;;;25.10;14.80;;;;;;;;;;4966583;28;20054;-72
2023/01/24 12:57:21;;;;;;;20.85;14.90;;;;;;;;;;4966907;28;20050;-72
2023/01/24 12:59:50;;;;;;;22.80;15.35;;;;;;;;;;4968848;28;20517;-73
2023/01/24 13:02:31;;;;;;;21.42;14.55;;;;;;;;;;4969291;28;20098;-73
2023/01/24 13:05:07;;;;;;;21.45;14.75;;;;;;;;;;4968511;28;20055;-72
2023/01/24 13:07:39;;;;;;;21.40;15.15;;;;;;;;;;4965428;28;20050;-73
2023/01/24 13:10:12;;;;;;;22.73;14.70;;;;;;;;;;4968713;28;20058;-73
2023/01/24 13:12:40;;;;;;;22.00;15.98;;;;;;;;;;4966304;28;20053;-72
2023/01/24 13:15:11;;;;;;;24.25;16.10;;;;;;;;;;4960831;28;20055;-72
2023/01/24 13:17:50;;;;;;;22.75;15.13;;;;;;;;;;4969305;28;20057;-73
2023/01/24 13:20:36;;;;;;;24.52;15.73;;;;;;;;;;4967363;28;20055;-73
2023/01/24 13:23:19;;;;;;;23.42;15.52;;;;;;;;;;4965249;28;20438;-73
2023/01/24 13:25:53;;;;;;;21.38;14.35;;;;;;;;;;4961931;28;20498;-73
2023/01/24 13:28:24;;;;;;;22.90;15.20;;;;;;;;;;4970167;28;20082;-73
2023/01/24 13:30:56;;;;;;;19.83;13.85;;;;;;;;;;4969141;28;20059;-73
2023/01/24 13:33:28;;;;;;;22.65;14.60;;;;;;;;;;4965564;28;20047;-72
2023/01/24 13:35:57;;;;;;;22.88;15.48;;;;;;;;;;4969165;28;20046;-73
2023/01/24 13:38:25;;;;;;;22.42;14.23;;;;;;;;;;4965784;28;20055;-70
2023/01/24 13:41:01;;;;;;;21.20;15.00;;;;;;;;;;4983108;28;20055;-73
2023/01/24 13:43:47;;;;;;;25.08;16.13;;;;;;;;;;4959657;28;20047;-72
2023/01/24 13:46:14;;;;;;;21.38;14.82;;;;;;;;;;4969580;28;20046;-72
2023/01/24 13:48:55;;;;;;;21.92;15.32;;;;;;;;;;4970121;28;20505;-72
2023/01/24 13:51:45;;;;;;;24.70;16.05;;;;;;;;;;4981352;28;20439;-75
2023/01/24 13:54:36;;;;;;;23.45;14.60;;;;;;;;;;4969002;28;20063;-72
2023/01/24 13:57:19;;;;;;;24.13;14.75;;;;;;;;;;4968215;28;20066;-72
2023/01/24 13:59:59;;;;;;;21.98;14.75;;;;;;;;;;4975387;28;20063;-71
2023/01/24 14:02:29;;;;;;;22.50;15.23;;;;;;;;;;4963277;28;20054;-71
2023/01/24 14:04:57;;;;;;;21.95;15.63;;;;;;;;;;4964003;28;20082;-73
2023/01/24 14:07:29;;;;;;;22.75;15.20;;;;;;;;;;4967709;28;20498;-73
2023/01/24 14:10:00;;;;;;;20.67;14.25;;;;;;;;;;4966409;28;20054;-74
2023/01/24 14:12:28;;;;;;;21.77;15.00;;;;;;;;;;4968047;28;20355;-73
2023/01/24 14:15:02;;;;;;;21.65;15.30;;;;;;;;;;4967863;28;20374;-72
2023/01/24 14:17:46;;;;;;;20.85;14.50;;;;;;;;;;4983220;28;20062;-74
2023/01/24 14:20:31;;;;;;;25.17;14.65;;;;;;;;;;4966468;28;20063;-73
2023/01/24 14:23:02;;;;;;;21.30;14.52;;;;;;;;;;4966290;28;20067;-74
2023/01/24 14:25:41;;;;;;;21.80;14.85;;;;;;;;;;4964305;28;20058;-74
2023/01/24 14:28:20;;;;;;;20.55;14.32;;;;;;;;;;4963876;28;20051;-74
2023/01/24 14:30:49;;;;;;;21.83;14.52;;;;;;;;;;4981138;28;20066;-74
2023/01/24 14:33:23;;;;;;;22.95;13.68;;;;;;;;;;4968534;28;20051;-74
2023/01/24 14:35:54;;;;;;;21.50;14.05;;;;;;;;;;4968212;28;20047;-73
2023/01/24 14:38:23;;;;;;;19.45;13.52;;;;;;;;;;4964385;28;20055;-76
2023/01/24 14:40:51;;;;;;;20.35;14.18;;;;;;;;;;4957316;28;20430;-73
2023/01/24 14:43:19;;;;;;;20.67;13.82;;;;;;;;;;4966075;28;20043;-72
2023/01/24 14:45:47;;;;;;;23.55;14.60;;;;;;;;;;4968371;28;20057;-73
2023/01/24 14:48:18;;;;;;;21.27;13.68;;;;;;;;;;4967790;28;20051;-73
2023/01/24 14:50:56;;;;;;;22.60;15.43;;;;;;;;;;4966765;28;20051;-73
2023/01/24 14:53:26;;;;;;;22.67;14.68;;;;;;;;;;4969201;28;20069;-73
2023/01/24 14:55:54;;;;;;;22.25;14.52;;;;;;;;;;4968736;28;20050;-73
2023/01/24 14:58:22;;;;;;;23.25;14.23;;;;;;;;;;4965724;28;20040;-72
2023/01/24 15:00:51;;;;;;;21.63;14.05;;;;;;;;;;4966285;28;20043;-73
2023/01/24 15:03:19;;;;;;;22.58;14.82;;;;;;;;;;4965226;28;20047;-73
2023/01/24 15:05:58;;;;;;;19.65;13.35;;;;;;;;;;4966922;28;20054;-73
2023/01/24 15:08:27;;;;;;;24.23;15.55;;;;;;;;;;4967960;28;20581;-72
2023/01/24 15:10:56;;;;;;;20.58;14.30;;;;;;;;;;4969561;28;20466;-73
2023/01/24 15:13:26;;;;;;;20.52;14.02;;;;;;;;;;4965955;28;20062;-72
2023/01/24 15:15:53;;;;;;;21.67;14.13;;;;;;;;;;4967629;28;20058;-73
2023/01/24 15:18:27;;;;;;;21.63;13.65;;;;;;;;;;4966487;28;20058;-73